createdAt,value
2019-04-21T01:23:06.337Z,10.60
2019-04-21T01:54:21.936Z,9.80
2019-04-21T02:45:23.258Z,8.80
2019-04-21T02:58:56.695Z,8.90
2019-04-21T04:48:54.967Z,9.60
2019-04-21T04:51:27.145Z,9.50
2019-04-21T04:53:47.418Z,9.50
2019-04-21T04:56:26.134Z,9.50
2019-04-21T04:59:28.175Z,9.40
2019-04-21T05:01:33.893Z,9.40
2019-04-21T05:09:18.554Z,9.40
2019-04-21T05:11:48.770Z,9.40
2019-04-21T05:22:20.188Z,9.40
2019-04-21T05:24:44.102Z,9.40
2019-04-21T05:27:33.697Z,9.40
2019-04-21T05:30:20.599Z,9.60
2019-04-21T05:32:58.512Z,9.70
2019-04-21T05:35:41.382Z,9.80
2019-04-21T05:38:17.681Z,10.20
2019-04-21T05:40:43.719Z,10.50
2019-04-21T05:43:28.118Z,10.60
2019-04-21T05:45:58.470Z,10.70
2019-04-21T05:48:28.338Z,10.80
2019-04-21T05:50:53.767Z,10.90
2019-04-21T05:53:49.227Z,10.90
2019-04-21T05:56:05.744Z,11.00
2019-04-21T06:01:37.725Z,10.90
2019-04-21T06:04:20.487Z,10.90
2019-04-21T06:06:48.100Z,10.90
2019-04-21T06:09:16.059Z,10.90
2019-04-21T06:11:42.893Z,11.10
2019-04-21T06:14:14.327Z,11.20
2019-04-21T06:16:48.264Z,11.60
2019-04-21T06:19:24.056Z,12.30
2019-04-21T06:21:45.199Z,13.00
2019-04-21T06:24:15.951Z,13.30
2019-04-21T06:29:20.371Z,13.70
2019-04-21T06:32:16.708Z,13.60
2019-04-21T06:34:53.484Z,13.70
2019-04-21T06:37:17.015Z,14.00
2019-04-21T06:39:31.914Z,13.70
2019-04-21T06:41:58.399Z,13.80
2019-04-21T06:44:33.550Z,14.40
2019-04-21T06:47:20.841Z,14.60
2019-04-21T06:49:36.906Z,15.00
2019-04-21T06:52:32.451Z,15.10
2019-04-21T06:57:10.721Z,16.70
2019-04-21T06:59:38.511Z,16.50
2019-04-21T07:02:35.226Z,16.30
2019-04-21T07:04:46.857Z,17.00
2019-04-21T07:07:14.530Z,17.30
2019-04-21T07:09:52.852Z,17.40
2019-04-21T07:12:13.911Z,17.20
2019-04-21T07:14:48.221Z,17.10
2019-04-21T07:17:24.255Z,17.50
2019-04-21T07:22:17.669Z,19.00
2019-04-21T07:24:53.607Z,19.60
2019-04-21T07:27:24.128Z,20.60
2019-04-21T07:29:55.645Z,20.50
2019-04-21T07:32:22.283Z,19.80
2019-04-21T07:34:51.566Z,19.70
2019-04-21T07:37:26.782Z,19.10
2019-04-21T07:39:49.409Z,19.20
2019-04-21T07:42:19.269Z,18.90
2019-04-21T07:44:47.339Z,18.90
2019-04-21T07:47:23.515Z,18.50
2019-04-21T07:52:47.042Z,17.70
2019-04-21T07:55:21.675Z,17.40
2019-04-21T07:57:35.493Z,17.00
2019-04-21T08:00:30.426Z,16.80
2019-04-21T08:02:40.300Z,16.70
2019-04-21T08:05:13.536Z,16.80
2019-04-21T08:10:13.967Z,16.50
2019-04-21T08:12:43.251Z,16.40
2019-04-21T08:15:23.536Z,16.80
2019-04-21T08:17:47.229Z,17.50
2019-04-21T08:20:14.304Z,18.20
2019-04-21T08:25:22.011Z,19.20
2019-04-21T08:30:30.574Z,19.50
2019-04-21T08:36:12.956Z,19.20
2019-04-21T08:38:02.098Z,19.10
2019-04-21T08:40:36.144Z,19.40
2019-04-21T08:43:01.248Z,19.50
2019-04-21T08:45:35.656Z,19.00
2019-04-21T08:48:04.262Z,19.30
2019-04-21T08:50:30.598Z,19.20
2019-04-21T08:53:07.559Z,19.30
2019-04-21T08:58:30.972Z,19.90
2019-04-21T09:01:01.199Z,20.30
2019-04-21T09:03:52.061Z,20.30
2019-04-21T09:06:23.147Z,20.50
2019-04-21T09:08:52.919Z,20.60
2019-04-21T09:11:16.222Z,20.30
2019-04-21T09:13:48.436Z,20.60
2019-04-21T09:16:17.058Z,20.90
2019-04-21T09:18:48.696Z,20.90
2019-04-21T09:21:25.663Z,20.50
2019-04-21T09:23:50.965Z,20.50
2019-04-21T09:26:26.268Z,21.00
2019-04-21T09:28:48.175Z,20.50
2019-04-21T09:31:06.627Z,21.00
2019-04-21T09:33:41.291Z,20.50
2019-04-21T09:36:09.671Z,20.40
2019-04-21T09:38:41.481Z,19.90
2019-04-21T09:41:25.530Z,20.20
2019-04-21T09:43:55.809Z,20.20
2019-04-21T09:46:25.336Z,20.20
2019-04-21T09:49:00.659Z,20.50
2019-04-21T09:51:25.881Z,20.50
2019-04-21T09:54:01.812Z,20.00
2019-04-21T09:56:34.365Z,19.80
2019-04-21T09:59:05.545Z,19.60
2019-04-21T10:01:36.811Z,19.80
2019-04-21T10:04:00.211Z,19.60
2019-04-21T10:06:28.406Z,19.80
2019-04-21T10:09:02.773Z,19.90
2019-04-21T10:11:28.785Z,19.60
2019-04-21T10:13:58.775Z,19.50
2019-04-21T10:16:29.823Z,19.50
2019-04-21T10:18:58.897Z,20.00
2019-04-21T10:21:29.284Z,19.80
2019-04-21T10:23:59.770Z,19.80
2019-04-21T10:26:28.831Z,19.60
2019-04-21T10:29:03.374Z,19.90
2019-04-21T10:31:28.911Z,20.00
2019-04-21T10:33:58.916Z,20.60
2019-04-21T10:36:40.691Z,21.00
2019-04-21T10:39:06.022Z,20.80
2019-04-21T10:41:39.231Z,20.20
2019-04-21T10:44:09.335Z,19.70
2019-04-21T10:46:38.201Z,20.00
2019-04-21T10:49:08.714Z,19.70
2019-04-21T10:51:37.422Z,19.70
2019-04-21T10:54:06.503Z,19.70
2019-04-21T10:56:41.120Z,19.10
2019-04-21T10:59:05.556Z,19.30
2019-04-21T11:01:34.739Z,19.70
2019-04-21T11:04:17.181Z,20.30
2019-04-21T11:06:38.821Z,20.60
2019-04-21T11:09:10.769Z,20.60
2019-04-21T11:11:40.032Z,20.50
2019-04-21T11:14:17.570Z,20.20
2019-04-21T11:16:48.050Z,20.10
2019-04-21T11:19:17.977Z,19.70
2019-04-21T11:21:47.126Z,19.30
2019-04-21T11:24:16.469Z,19.00
2019-04-21T11:26:47.638Z,19.00
2019-04-21T11:29:17.050Z,18.70
2019-04-21T11:31:47.302Z,18.80
2019-04-21T11:34:16.170Z,18.50
2019-04-21T11:36:47.823Z,18.30
2019-04-21T11:40:07.367Z,18.40
2019-04-21T11:42:19.519Z,18.50
2019-04-21T11:44:49.373Z,18.50
2019-04-21T11:47:20.502Z,18.50
2019-04-21T11:49:49.519Z,18.60
2019-04-21T11:52:18.803Z,18.60
2019-04-21T11:54:48.640Z,18.90
2019-04-21T11:57:22.738Z,19.30
2019-04-21T11:59:48.128Z,19.60
2019-04-21T12:02:17.343Z,20.00
2019-04-21T12:04:47.463Z,20.00
2019-04-21T12:07:17.560Z,20.30
2019-04-21T12:09:47.798Z,20.80
2019-04-21T12:12:21.192Z,20.50
2019-04-21T12:14:50.339Z,21.10
2019-04-21T12:17:20.285Z,20.90
2019-04-21T12:19:50.424Z,19.80
2019-04-21T12:22:23.593Z,19.60
2019-04-21T12:24:51.223Z,19.50
2019-04-21T12:27:20.379Z,19.50
2019-04-21T12:29:49.491Z,19.40
2019-04-21T12:32:38.526Z,19.10
2019-04-21T12:35:10.051Z,18.80
2019-04-21T12:37:38.860Z,18.90
2019-04-21T12:40:08.503Z,18.80
2019-04-21T12:42:39.181Z,19.00
2019-04-21T12:45:09.670Z,18.90
2019-04-21T12:47:39.767Z,18.30
2019-04-21T12:50:10.933Z,18.40
2019-04-21T12:52:40.180Z,18.30
2019-04-21T12:55:09.443Z,18.40
2019-04-21T12:57:39.686Z,18.80
2019-04-21T13:00:11.071Z,19.20
2019-04-21T13:02:39.981Z,19.30
2019-04-21T13:05:09.504Z,19.50
2019-04-21T13:07:39.482Z,19.80
2019-04-21T13:10:10.546Z,19.90
2019-04-21T13:12:39.555Z,20.10
2019-04-21T13:15:10.756Z,19.90
2019-04-21T13:17:42.393Z,20.00
2019-04-21T13:20:11.645Z,19.80
2019-04-21T13:22:41.855Z,20.00
2019-04-21T13:25:11.886Z,20.00
2019-04-21T13:27:40.979Z,20.00
2019-04-21T13:30:12.690Z,19.80
2019-04-21T13:32:42.908Z,19.80
2019-04-21T13:35:12.913Z,19.60
2019-04-21T13:37:41.787Z,19.10
2019-04-21T13:40:39.810Z,18.90
2019-04-21T13:42:57.273Z,18.70
2019-04-21T13:45:23.966Z,18.80
2019-04-21T13:47:52.815Z,18.70
2019-04-21T13:50:21.654Z,18.50
2019-04-21T13:52:51.134Z,18.40
2019-04-21T13:55:21.270Z,17.90
2019-04-21T13:57:50.531Z,18.00
2019-04-21T14:00:21.434Z,18.30
2019-04-21T14:02:50.477Z,18.20
2019-04-21T14:05:20.291Z,18.10
2019-04-21T14:07:50.298Z,18.20
2019-04-21T14:10:19.892Z,18.10
2019-04-21T14:12:48.990Z,18.00
2019-04-21T14:15:20.234Z,18.10
2019-04-21T14:17:49.172Z,18.00
2019-04-21T14:20:19.518Z,18.00
2019-04-21T14:22:49.431Z,18.10
2019-04-21T14:25:19.665Z,18.10
2019-04-21T14:27:51.636Z,18.00
2019-04-21T14:30:20.639Z,17.90
2019-04-21T14:32:49.907Z,17.90
2019-04-21T14:35:18.942Z,17.90
2019-04-21T14:37:48.794Z,17.80
2019-04-21T14:40:23.710Z,17.60
2019-04-21T14:42:48.363Z,17.60
2019-04-21T14:45:30.993Z,17.60
2019-04-21T14:48:05.104Z,17.40
2019-04-21T14:50:36.595Z,17.10
2019-04-21T14:53:07.783Z,16.80
2019-04-21T14:55:39.424Z,16.50
2019-04-21T14:58:10.985Z,16.30
2019-04-21T15:00:57.937Z,16.30
2019-04-21T15:03:30.085Z,16.20
2019-04-21T15:05:58.913Z,16.10
2019-04-21T15:08:28.923Z,16.10
2019-04-21T15:10:58.878Z,16.10
2019-04-21T15:13:28.060Z,16.10
2019-04-21T15:15:57.033Z,16.10
2019-04-21T15:18:26.391Z,16.10
2019-04-21T15:20:55.324Z,15.90
2019-04-21T15:23:26.554Z,15.80
2019-04-21T15:25:54.816Z,15.80
2019-04-21T15:28:25.381Z,15.90
2019-04-21T15:30:54.725Z,15.90
2019-04-21T15:33:24.541Z,16.00
2019-04-21T15:35:53.506Z,16.00
2019-04-21T15:38:22.432Z,16.10
2019-04-21T15:40:57.451Z,16.20
2019-04-21T15:43:24.517Z,16.20
2019-04-21T15:45:54.789Z,16.30
2019-04-21T15:48:23.938Z,16.30
2019-04-21T15:50:52.789Z,16.20
2019-04-21T15:53:27.420Z,16.10
2019-04-21T15:55:59.126Z,15.90
2019-04-21T15:58:36.800Z,15.90
2019-04-21T16:01:07.279Z,15.80
2019-04-21T16:03:36.546Z,15.70
2019-04-21T16:06:05.663Z,15.70
2019-04-21T16:08:35.251Z,15.30
2019-04-21T16:11:07.441Z,15.40
2019-04-21T16:13:37.371Z,15.30
2019-04-21T16:16:06.404Z,14.90
2019-04-21T16:18:36.294Z,14.50
2019-04-21T16:21:06.185Z,14.10
2019-04-21T16:23:36.174Z,13.80
2019-04-21T16:26:06.649Z,13.70
2019-04-21T16:28:35.510Z,13.40
2019-04-21T16:31:04.634Z,13.30
2019-04-21T16:33:33.531Z,13.10
2019-04-21T16:36:02.335Z,12.80
2019-04-21T16:38:35.220Z,12.70
2019-04-21T16:41:08.146Z,12.50
2019-04-21T16:43:35.422Z,12.20
2019-04-21T16:46:04.700Z,11.90
2019-04-21T16:48:35.798Z,11.70
2019-04-21T16:51:05.639Z,11.60
2019-04-21T16:53:39.844Z,11.60
2019-04-21T16:56:11.002Z,11.60
2019-04-21T16:58:44.959Z,11.50
2019-04-21T17:01:22.389Z,11.50
2019-04-21T17:03:52.676Z,11.30
2019-04-21T17:06:22.766Z,11.20
2019-04-21T17:08:54.538Z,11.10
2019-04-21T17:11:27.249Z,11.10
2019-04-21T17:13:54.343Z,10.90
2019-04-21T17:19:05.295Z,10.80
2019-04-21T17:21:25.992Z,10.80
2019-04-21T17:23:56.239Z,10.80
2019-04-21T17:26:26.889Z,10.80
2019-04-21T17:28:56.583Z,10.70
2019-04-21T17:31:26.646Z,10.70
2019-04-21T17:34:02.156Z,10.70
2019-04-21T17:36:27.279Z,10.60
2019-04-21T17:38:57.779Z,10.60
2019-04-21T17:41:35.440Z,10.50
2019-04-21T17:43:58.310Z,10.40
2019-04-21T17:46:36.861Z,10.30
2019-04-21T17:48:58.925Z,10.30
2019-04-21T17:51:51.793Z,10.30
2019-04-21T17:54:27.623Z,10.30
2019-04-21T17:57:10.986Z,10.30
2019-04-21T17:59:51.062Z,10.30
2019-04-21T18:02:09.442Z,10.30
2019-04-21T18:04:41.583Z,10.20
2019-04-21T18:07:10.616Z,10.20
2019-04-21T18:09:51.102Z,10.20
2019-04-21T18:12:13.650Z,10.10
2019-04-21T18:14:28.480Z,10.10
2019-04-21T18:17:04.456Z,10.00
2019-04-21T18:19:41.081Z,10.00
2019-04-21T18:22:14.740Z,10.00
2019-04-21T18:24:59.302Z,10.00
2019-04-21T18:27:26.718Z,10.00
2019-04-21T18:30:06.308Z,10.00
2019-04-21T18:32:38.829Z,10.00
2019-04-21T18:35:19.485Z,10.00
2019-04-21T18:38:05.734Z,10.00
2019-04-21T18:40:36.542Z,10.00
2019-04-21T18:43:46.787Z,9.90
2019-04-21T18:46:17.580Z,9.90
2019-04-21T18:48:34.874Z,9.70
2019-04-21T18:51:04.725Z,9.80
2019-04-21T18:53:47.732Z,9.70
2019-04-21T18:56:06.486Z,9.60
2019-04-21T18:58:36.122Z,9.60
2019-04-21T19:01:14.816Z,9.50
2019-04-21T19:03:47.123Z,9.40
2019-04-21T19:06:20.580Z,9.30
2019-04-21T19:09:04.859Z,9.30
2019-04-21T19:11:33.730Z,9.20
2019-04-21T19:14:20.808Z,9.20
2019-04-21T19:16:43.139Z,9.20
2019-04-21T19:21:32.872Z,9.30
2019-04-21T19:26:52.137Z,9.20
2019-04-21T19:29:23.967Z,9.10
2019-04-21T19:31:49.760Z,9.00
2019-04-21T19:34:08.174Z,9.00
2019-04-21T19:36:30.509Z,8.90
2019-04-21T19:39:16.169Z,8.90
2019-04-21T19:41:45.854Z,8.90
2019-04-21T19:44:34.006Z,8.90
2019-04-21T19:47:04.093Z,8.80
2019-04-21T19:49:40.544Z,8.50
2019-04-21T19:51:56.254Z,8.50
2019-04-21T19:54:25.201Z,8.40
2019-04-21T19:56:51.456Z,8.30
2019-04-21T19:59:30.693Z,8.20
2019-04-21T20:01:51.461Z,8.30
2019-04-21T20:04:20.323Z,8.20
2019-04-21T20:07:01.054Z,8.20
2019-04-21T20:09:40.749Z,8.20
2019-04-21T20:12:34.253Z,8.20
2019-04-21T20:15:13.636Z,8.30
2019-04-21T20:17:32.325Z,8.30
2019-04-21T20:19:40.581Z,8.40
2019-04-21T20:22:09.432Z,8.40
2019-04-21T20:24:49.907Z,8.40
2019-04-21T20:27:17.625Z,8.40
2019-04-21T20:30:04.124Z,8.50
2019-04-21T20:32:31.691Z,8.40
2019-04-21T20:35:07.986Z,8.50
2019-04-21T20:37:34.461Z,8.50
2019-04-21T20:39:50.496Z,8.50
2019-04-21T20:42:28.078Z,8.50
2019-04-21T20:45:28.850Z,8.50
2019-04-21T20:47:35.042Z,8.40
2019-04-21T20:50:18.541Z,8.40
2019-04-21T20:52:55.195Z,8.40
2019-04-21T20:55:27.529Z,8.40
2019-04-21T20:58:02.664Z,8.40
2019-04-21T21:00:49.036Z,8.30
2019-04-21T21:03:12.204Z,8.30
2019-04-21T21:05:39.866Z,8.30
2019-04-21T21:08:21.475Z,8.20
2019-04-21T21:10:38.725Z,8.10
2019-04-21T21:13:24.411Z,8.10
2019-04-21T21:16:00.555Z,8.10
2019-04-21T21:18:41.056Z,8.10
2019-04-21T21:20:59.346Z,8.10
2019-04-21T21:23:40.529Z,8.00
2019-04-21T21:26:03.138Z,8.00
2019-04-21T21:28:32.761Z,7.90
2019-04-21T21:31:07.473Z,7.90
2019-04-21T21:33:50.715Z,7.80
2019-04-21T21:36:13.638Z,7.80
2019-04-21T21:38:45.874Z,7.70
2019-04-21T21:41:03.245Z,7.60
2019-04-21T21:43:31.327Z,7.60
2019-04-21T21:46:01.590Z,7.60
2019-04-21T21:48:53.827Z,7.60
2019-04-21T21:51:29.308Z,7.60
2019-04-21T21:53:48.548Z,7.60
2019-04-21T21:56:41.060Z,7.60
2019-04-21T21:59:16.470Z,7.60
2019-04-21T22:02:01.668Z,7.60
2019-04-21T22:04:44.493Z,7.60
2019-04-21T22:07:29.649Z,7.60
2019-04-21T22:09:50.461Z,7.60
2019-04-21T22:12:32.717Z,7.70
2019-04-21T22:15:14.885Z,7.70
2019-04-21T22:18:01.298Z,7.70
2019-04-21T22:20:33.035Z,7.70
2019-04-21T22:22:54.328Z,7.60
2019-04-21T22:25:24.357Z,7.70
2019-04-21T22:28:00.040Z,7.70
2019-04-21T22:30:42.120Z,7.70
2019-04-21T22:33:10.118Z,7.70
2019-04-21T22:35:42.566Z,7.80
2019-04-21T22:38:27.011Z,7.70
2019-04-21T22:40:57.998Z,7.70
2019-04-21T22:43:30.527Z,7.70
2019-04-21T22:45:53.673Z,7.70
2019-04-21T22:48:26.277Z,7.70
2019-04-21T22:50:56.192Z,7.70
2019-04-21T22:53:27.228Z,7.70
2019-04-21T22:56:13.685Z,7.70
2019-04-21T22:58:48.305Z,7.60
2019-04-21T23:01:39.153Z,7.60
2019-04-21T23:23:11.789Z,7.50
2019-04-21T23:25:36.608Z,7.50
2019-04-21T23:28:05.073Z,7.50
2019-04-21T23:30:48.535Z,7.50
2019-04-21T23:32:59.704Z,7.50
2019-04-21T23:35:32.240Z,7.40
2019-04-21T23:37:58.698Z,7.40
2019-04-21T23:40:25.512Z,7.40
2019-04-21T23:43:00.092Z,7.40
2019-04-21T23:45:31.335Z,7.30
2019-04-21T23:48:14.629Z,7.30
2019-04-21T23:50:40.731Z,7.30
2019-04-21T23:52:59.423Z,7.30
2019-04-21T23:55:29.945Z,7.20
2019-04-21T23:58:09.422Z,7.20
